Gardner, Colorado
Current Conditions -  °F | °C
As of 8:50 PM on Saturday 20 Dec 2014 (Local Time) from KVTP Reporting Station
Clear Clear  
Wind Chill: 10°   Ceiling: Unl
Heat Index: 21°   Visibility: 10mi
Dew Point: 14°   Wind: 10mph
Humidity: 74%   Direction: 200°SSW
Pressure: 29.99"   Gusts: 20mph
Location:  37.78°N, 105.17°W
Report Text: KVTP 210350Z AUTO 20009G17KT 170V230 10SM CLR M06/M10 A2999 RMK AO2
Loading
Personal Weather Stations






























Interactive Weather Map New forecast layout! Learn more

10-Day Weather Forecast

Advertisements
Track Severe Weather on mobile